^^
Saratoga-Weather Station Historical Data
Daily Summary for May 24, 2022 Units:  Metric    English   Both
Daily Weekly Monthly Yearly Custom
  High: Low: Average:
Temperature: 17.6 °C 11.4 °C 14.6 °C
Dew Point: 13.3 °C 8.7 °C 10.9 °C
Humidity: 93% 58% 79%
Wind Speed: 32.2km/h 0km/h 4.7km/h
Wind Gust: 32.2km/h - -
Wind- - West
Pressure: 1012.2 hPa 1002.4 hPa -
Precipitation: 6.1 mm    
Historical Graphs
 
 
Tabular Data for May 24, 2022
Time Temperature Dew Point Pressure Wind Wind Speed Wind Gust Humidity Rainfall Rate (Hourly) solar
00:01 14.4 °C 13.1 °C 1003.0 hPa Calm     92% 0.0 mm 0 W/m2
00:06 14.4 °C 13.1 °C 1003.0 hPa Calm     92% 0.0 mm 0 W/m2
00:11 14.4 °C 13.1 °C 1003.0 hPa NW 1.4 km/h 4.8 km/h 92% 0.0 mm 0 W/m2
00:16 14.4 °C 13.1 °C 1003.0 hPa NW 1.4 km/h 1.6 km/h 92% 0.0 mm 0 W/m2
00:21 14.4 °C 13.1 °C 1003.4 hPa Calm   4.8 km/h 92% 0.0 mm 0 W/m2
00:26 14.4 °C 13.1 °C 1003.4 hPa Calm     92% 0.0 mm 0 W/m2
00:31 14.5 °C 13.2 °C 1003.4 hPa West 3.2 km/h 4.8 km/h 92% 0.0 mm 0 W/m2
00:36 14.5 °C 13.2 °C 1003.4 hPa Calm     92% 0.0 mm 0 W/m2
00:41 14.5 °C 13.2 °C 1003.4 hPa NE 1.4 km/h 3.2 km/h 92% 0.0 mm 0 W/m2
00:46 14.5 °C 13.2 °C 1003.4 hPa Calm   3.2 km/h 92% 0.0 mm 0 W/m2
00:51 14.5 °C 13.2 °C 1003.4 hPa NE 1.4 km/h 3.2 km/h 92% 0.0 mm 0 W/m2
00:56 14.6 °C 13.3 °C 1003.0 hPa NE 1.4 km/h 1.6 km/h 92% 0.0 mm 0 W/m2
01:01 14.6 °C 13.3 °C 1003.4 hPa East 3.2 km/h 3.2 km/h 92% 0.0 mm 0 W/m2
01:06 14.6 °C 13.3 °C 1003.4 hPa SSE 1.4 km/h 4.8 km/h 92% 0.0 mm 0 W/m2
01:11 14.6 °C 13.3 °C 1003.4 hPa Calm   1.6 km/h 92% 0.0 mm 0 W/m2
01:16 14.6 °C 13.3 °C 1003.4 hPa Calm   1.6 km/h 92% 0.0 mm 0 W/m2
01:21 14.6 °C 13.3 °C 1003.4 hPa ENE 1.4 km/h 3.2 km/h 92% 0.0 mm 0 W/m2
01:26 14.5 °C 13.2 °C 1003.0 hPa Calm   3.2 km/h 92% 0.0 mm 0 W/m2
01:31 14.4 °C 13.1 °C 1003.0 hPa Calm   1.6 km/h 92% 0.0 mm 0 W/m2
01:36 14.4 °C 13.1 °C 1003.0 hPa Calm   3.2 km/h 92% 0.0 mm 0 W/m2
01:41 14.5 °C 13.2 °C 1003.0 hPa WNW 1.4 km/h 1.6 km/h 92% 0.0 mm 0 W/m2
01:46 14.5 °C 13.2 °C 1003.0 hPa Calm     92% 0.0 mm 0 W/m2
01:51 14.5 °C 13.2 °C 1003.0 hPa NW 1.4 km/h 4.8 km/h 92% 0.0 mm 0 W/m2
01:56 14.5 °C 13.2 °C 1003.0 hPa WNW 1.4 km/h 3.2 km/h 92% 0.0 mm 0 W/m2
02:01 14.5 °C 13.2 °C 1003.0 hPa WNW 1.4 km/h 3.2 km/h 92% 0.0 mm 0 W/m2
02:06 14.5 °C 13.2 °C 1003.0 hPa Calm   3.2 km/h 92% 0.0 mm 0 W/m2
02:11 14.5 °C 13.2 °C 1003.0 hPa Calm   1.6 km/h 92% 0.0 mm 0 W/m2
02:16 14.4 °C 13.1 °C 1003.0 hPa Calm   1.6 km/h 92% 0.0 mm 0 W/m2
02:21 14.4 °C 13.1 °C 1003.0 hPa Calm   3.2 km/h 92% 0.0 mm 0 W/m2
02:26 14.4 °C 13.1 °C 1003.0 hPa West 4.7 km/h 6.4 km/h 92% 0.0 mm 0 W/m2
02:31 14.4 °C 12.9 °C 1003.0 hPa Calm   4.8 km/h 91% 0.0 mm 0 W/m2
02:36 14.4 °C 12.9 °C 1003.0 hPa Calm   3.2 km/h 91% 0.0 mm 0 W/m2
02:41 14.4 °C 13.1 °C 1003.0 hPa West 1.4 km/h 6.4 km/h 92% 0.0 mm 0 W/m2
02:46 14.4 °C 13.1 °C 1003.0 hPa NW 1.4 km/h 3.2 km/h 92% 0.0 mm 0 W/m2
02:51 14.4 °C 13.1 °C 1003.0 hPa WNW 1.4 km/h 4.8 km/h 92% 0.0 mm 0 W/m2
02:56 14.3 °C 13 °C 1003.0 hPa NW 1.4 km/h 4.8 km/h 92% 0.0 mm 0 W/m2
03:01 14.4 °C 13.1 °C 1003.0 hPa NW 3.2 km/h 3.2 km/h 92% 0.0 mm 0 W/m2
03:06 14.3 °C 13 °C 1003.0 hPa Calm   4.8 km/h 92% 0.0 mm 0 W/m2
03:11 14.3 °C 13 °C 1003.0 hPa Calm   1.6 km/h 92% 0.0 mm 0 W/m2
03:16 14.3 °C 13 °C 1003.0 hPa Calm   3.2 km/h 92% 0.0 mm 0 W/m2
03:21 14.3 °C 13 °C 1002.7 hPa Calm   4.8 km/h 92% 0.0 mm 0 W/m2
03:26 14.2 °C 12.9 °C 1002.7 hPa Calm   1.6 km/h 92% 0.0 mm 0 W/m2
03:31 14.2 °C 12.9 °C 1002.7 hPa NNE 1.4 km/h 4.8 km/h 92% 0.0 mm 0 W/m2
03:36 14.2 °C 12.9 °C 1002.7 hPa NNW 1.4 km/h 6.4 km/h 92% 0.2 mm 0 W/m2
03:41 14.2 °C 12.9 °C 1002.7 hPa WNW 7.9 km/h 8 km/h 92% 0.2 mm 0 W/m2
03:46 14.1 °C 12.8 °C 1002.7 hPa WNW 1.4 km/h 6.4 km/h 92% 0.2 mm 0 W/m2
03:51 14.1 °C 12.8 °C 1002.4 hPa NW 4.7 km/h 6.4 km/h 92% 0.2 mm 0 W/m2
03:56 14.1 °C 12.8 °C 1002.7 hPa NNW 3.2 km/h 3.2 km/h 92% 0.2 mm 0 W/m2
04:01 14 °C 12.7 °C 1002.7 hPa NNW 3.2 km/h 4.8 km/h 92% 0.2 mm 0 W/m2
04:06 13.9 °C 12.6 °C 1002.4 hPa NW 3.2 km/h 4.8 km/h 92% 0.5 mm 0 W/m2
04:11 13.9 °C 12.6 °C 1002.4 hPa NNW 3.2 km/h 4.8 km/h 92% 0.5 mm 0 W/m2
04:16 13.9 °C 12.6 °C 1002.4 hPa NNW 6.4 km/h 6.4 km/h 92% 0.5 mm 0 W/m2
04:21 13.9 °C 12.6 °C 1002.4 hPa Calm   3.2 km/h 92% 0.5 mm 0 W/m2
04:26 13.9 °C 12.6 °C 1002.4 hPa WNW 3.2 km/h 6.4 km/h 92% 0.5 mm 0 W/m2
04:31 13.9 °C 12.6 °C 1002.4 hPa NNW 3.2 km/h 3.2 km/h 92% 0.5 mm 0 W/m2
04:36 13.8 °C 12.5 °C 1002.7 hPa NW 3.2 km/h 6.4 km/h 92% 0.5 mm 0 W/m2
04:41 13.8 °C 12.5 °C 1002.7 hPa NNW 7.9 km/h 12.9 km/h 92% 0.5 mm 0 W/m2
04:46 13.8 °C 12.5 °C 1002.7 hPa North 3.2 km/h 8 km/h 92% 0.5 mm 0 W/m2
04:51 13.8 °C 12.5 °C 1002.7 hPa North 3.2 km/h 12.9 km/h 92% 1.3 mm 0 W/m2
04:56 13.7 °C 12.4 °C 1002.7 hPa WNW 6.4 km/h 14.5 km/h 92% 2.0 mm 0 W/m2
05:01 13.5 °C 12.2 °C 1002.7 hPa WNW 3.2 km/h 12.9 km/h 92% 2.3 mm 0 W/m2
05:06 13.4 °C 12.1 °C 1002.7 hPa WNW 4.7 km/h 14.5 km/h 92% 2.3 mm 0 W/m2
05:11 13.3 °C 12 °C 1003.0 hPa WSW 3.2 km/h 16.1 km/h 92% 2.3 mm 0 W/m2
05:16 13.3 °C 12 °C 1003.0 hPa NNW 3.2 km/h 4.8 km/h 92% 2.5 mm 0 W/m2
05:22 13.2 °C 11.9 °C 1003.0 hPa West 4.7 km/h 16.1 km/h 92% 2.5 mm 0 W/m2
05:27 13.1 °C 11.8 °C 1003.0 hPa NW 14.3 km/h 14.5 km/h 92% 2.8 mm 0 W/m2
05:32 13.1 °C 11.8 °C 1003.0 hPa NW 1.4 km/h 6.4 km/h 92% 3.0 mm 0 W/m2
05:37 13.1 °C 11.8 °C 1003.4 hPa West 14.5 km/h 14.5 km/h 92% 3.3 mm 0 W/m2
05:42 13.1 °C 11.8 °C 1003.4 hPa NNW 6.4 km/h 12.9 km/h 92% 3.3 mm 0 W/m2
05:47 13 °C 11.7 °C 1003.4 hPa NW 7.9 km/h 12.9 km/h 92% 3.3 mm 0 W/m2
05:52 12.9 °C 11.6 °C 1003.4 hPa NNW 9.7 km/h 12.9 km/h 92% 2.5 mm 0 W/m2
05:57 12.9 °C 11.6 °C 1003.4 hPa WNW 3.2 km/h 6.4 km/h 92% 1.8 mm 0 W/m2
06:02 12.9 °C 11.6 °C 1003.7 hPa WSW 7.9 km/h 12.9 km/h 92% 1.5 mm 5 W/m2
06:07 12.9 °C 11.6 °C 1003.7 hPa WNW 4.7 km/h 9.7 km/h 92% 1.5 mm 5 W/m2
06:12 12.8 °C 11.5 °C 1003.7 hPa Calm   12.9 km/h 92% 1.3 mm 0 W/m2
06:17 12.8 °C 11.5 °C 1003.7 hPa NW 4.7 km/h 6.4 km/h 92% 1.0 mm 5 W/m2
06:22 12.8 °C 11.5 °C 1004.1 hPa West 19.5 km/h 22.5 km/h 92% 1.0 mm 11 W/m2
06:27 12.8 °C 11.5 °C 1004.1 hPa WNW 1.4 km/h 11.3 km/h 92% 0.8 mm 9 W/m2
06:32 12.8 °C 11.5 °C 1004.1 hPa WNW 3.2 km/h 22.5 km/h 92% 0.8 mm 0 W/m2
06:37 12.7 °C 11.4 °C 1004.1 hPa WNW 3.2 km/h 9.7 km/h 92% 0.8 mm 9 W/m2
06:42 12.6 °C 11.3 °C 1004.1 hPa WSW 4.7 km/h 6.4 km/h 92% 1.0 mm 18 W/m2
06:47 12.6 °C 11.3 °C 1003.7 hPa WNW 1.4 km/h 6.4 km/h 92% 0.8 mm 14 W/m2
06:52 12.6 °C 11.3 °C 1004.1 hPa NW 4.7 km/h 9.7 km/h 92% 0.8 mm 14 W/m2
06:57 12.4 °C 11.1 °C 1004.1 hPa West 3.2 km/h 11.3 km/h 92% 0.8 mm 11 W/m2
07:02 12.4 °C 11.1 °C 1004.1 hPa WNW 3.2 km/h 11.3 km/h 92% 0.8 mm 14 W/m2
07:07 12.3 °C 11 °C 1004.4 hPa WSW 6.4 km/h 12.9 km/h 92% 0.8 mm 40 W/m2
07:12 12.4 °C 11.1 °C 1004.7 hPa WNW 11.1 km/h 12.9 km/h 92% 0.8 mm 116 W/m2
07:17 12.5 °C 11.4 °C 1004.7 hPa NW 4.7 km/h 8 km/h 93% 0.8 mm 35 W/m2
07:22 12.5 °C 11.2 °C 1005.1 hPa NW 7.9 km/h 12.9 km/h 92% 0.5 mm 30 W/m2
07:27 12.5 °C 11.2 °C 1005.1 hPa WNW 1.4 km/h 4.8 km/h 92% 0.5 mm 32 W/m2
07:32 12.4 °C 11.1 °C 1005.1 hPa WNW 3.2 km/h 17.7 km/h 92% 0.5 mm 12 W/m2
07:37 12.4 °C 11.1 °C 1005.4 hPa WNW 19.5 km/h 19.3 km/h 92% 0.5 mm 26 W/m2
07:42 12.1 °C 10.7 °C 1005.4 hPa West 6.4 km/h 16.1 km/h 91% 0.5 mm 21 W/m2
07:47 11.8 °C 10.4 °C 1005.4 hPa WNW 7.9 km/h 12.9 km/h 91% 1.0 mm 47 W/m2
07:52 11.6 °C 10.2 °C 1005.4 hPa West 9.7 km/h 14.5 km/h 91% 1.3 mm 51 W/m2
07:57 11.4 °C 10 °C 1005.8 hPa WSW 17.7 km/h 17.7 km/h 91% 1.5 mm 47 W/m2
08:02 11.4 °C 10.1 °C 1005.8 hPa WNW 13 km/h 12.9 km/h 92% 1.5 mm 42 W/m2
08:07 11.4 °C 10.1 °C 1005.8 hPa SW 6.4 km/h 12.9 km/h 92% 1.5 mm 42 W/m2
08:12 11.4 °C 10.1 °C 1005.8 hPa West 13 km/h 12.9 km/h 92% 1.5 mm 39 W/m2
08:17 11.5 °C 10.2 °C 1005.8 hPa WNW 13 km/h 17.7 km/h 92% 1.5 mm 51 W/m2
08:22 11.8 °C 10.7 °C 1005.8 hPa WSW 13 km/h 16.1 km/h 93% 1.5 mm 49 W/m2
08:27 12.1 °C 11 °C 1005.8 hPa WNW 11.1 km/h 17.7 km/h 93% 1.5 mm 49 W/m2
08:32 12.3 °C 11 °C 1006.1 hPa NW 6.4 km/h 17.7 km/h 92% 1.5 mm 49 W/m2
08:37 12.4 °C 11 °C 1006.1 hPa WNW 7.9 km/h 16.1 km/h 91% 1.3 mm 56 W/m2
08:42 12.6 °C 11 °C 1006.4 hPa West 6.4 km/h 17.7 km/h 90% 0.8 mm 116 W/m2
08:47 12.7 °C 11.3 °C 1006.4 hPa West 11.1 km/h 14.5 km/h 91% 0.5 mm 155 W/m2
08:52 12.8 °C 11 °C 1006.4 hPa West 9.7 km/h 17.7 km/h 89% 0.2 mm 199 W/m2
08:57 12.8 °C 11 °C 1006.4 hPa West 3.2 km/h 11.3 km/h 89% 0.0 mm 76 W/m2
09:02 12.7 °C 10.8 °C 1006.4 hPa WNW 7.9 km/h 17.7 km/h 88% 0.0 mm 144 W/m2
09:07 12.6 °C 10.7 °C 1006.4 hPa NW 6.4 km/h 11.3 km/h 88% 0.0 mm 83 W/m2
09:12 12.6 °C 10.8 °C 1006.4 hPa WNW 9.7 km/h 9.7 km/h 89% 0.0 mm 69 W/m2
09:17 12.8 °C 11 °C 1006.8 hPa WNW 4.7 km/h 11.3 km/h 89% 0.0 mm 125 W/m2
09:22 13.1 °C 11.2 °C 1006.8 hPa WSW 6.4 km/h 16.1 km/h 88% 0.0 mm 236 W/m2
09:27 13.3 °C 11.2 °C 1006.8 hPa West 3.2 km/h 11.3 km/h 87% 0.0 mm 239 W/m2
09:32 13.6 °C 11.5 °C 1006.8 hPa WNW 4.7 km/h 16.1 km/h 87% 0.0 mm 221 W/m2
09:37 13.7 °C 11.4 °C 1006.8 hPa West 9.7 km/h 9.7 km/h 86% 0.0 mm 272 W/m2
09:42 13.8 °C 11.5 °C 1006.8 hPa WNW 4.7 km/h 11.3 km/h 86% 0.0 mm 243 W/m2
09:47 13.8 °C 11.3 °C 1007.1 hPa WNW 24.1 km/h 24.1 km/h 85% 0.0 mm 237 W/m2
09:52 14 °C 11.5 °C 1006.8 hPa North 7.9 km/h 14.5 km/h 85% 0.0 mm 258 W/m2
09:57 13.8 °C 10.8 °C 1006.8 hPa North 4.7 km/h 16.1 km/h 82% 0.0 mm 163 W/m2
10:02 13.8 °C 11.1 °C 1007.1 hPa WNW 1.4 km/h 11.3 km/h 84% 0.0 mm 190 W/m2
10:07 14 °C 11.2 °C 1007.1 hPa WNW 1.4 km/h 16.1 km/h 83% 0.0 mm 696 W/m2
10:12 14.3 °C 11.1 °C 1007.1 hPa WSW 4.7 km/h 20.9 km/h 81% 0.0 mm 469 W/m2
10:17 14.3 °C 10.9 °C 1007.5 hPa WNW 7.9 km/h 17.7 km/h 80% 0.0 mm 206 W/m2
10:22 14.1 °C 10.9 °C 1007.5 hPa WSW 13 km/h 12.9 km/h 81% 0.0 mm 199 W/m2
10:27 14.1 °C 10.7 °C 1007.5 hPa WNW 13 km/h 25.7 km/h 80% 0.0 mm 610 W/m2
10:32 14.2 °C 10.8 °C 1007.5 hPa NW 32.2 km/h 32.2 km/h 80% 0.0 mm 258 W/m2
10:37 14 °C 10.6 °C 1007.5 hPa NW 4.7 km/h 9.7 km/h 80% 0.0 mm 281 W/m2
10:42 13.9 °C 10.5 °C 1007.5 hPa WSW 32.2 km/h 32.2 km/h 80% 0.0 mm 190 W/m2
10:47 13.8 °C 10.4 °C 1007.5 hPa WNW 4.7 km/h 20.9 km/h 80% 0.0 mm 234 W/m2
10:52 13.8 °C 10.4 °C 1007.8 hPa WNW 13 km/h 14.5 km/h 80% 0.0 mm 355 W/m2
10:57 14.1 °C 10.3 °C 1007.8 hPa WNW 4.7 km/h 20.9 km/h 78% 0.0 mm 258 W/m2
11:02 14.2 °C 10.6 °C 1007.5 hPa WNW 4.7 km/h 19.3 km/h 79% 0.0 mm 294 W/m2
11:07 14.5 °C 11.1 °C 1007.8 hPa NNW 13 km/h 12.9 km/h 80% 0.0 mm 881 W/m2
11:12 14.7 °C 11.1 °C 1007.8 hPa WSW 6.4 km/h 17.7 km/h 79% 0.0 mm 1034 W/m2
11:17 14.7 °C 10.9 °C 1007.8 hPa WNW 4.7 km/h 11.3 km/h 78% 0.0 mm 260 W/m2
11:22 14.6 °C 10.8 °C 1007.8 hPa NW 7.9 km/h 14.5 km/h 78% 0.0 mm 338 W/m2
11:27 14.7 °C 11.1 °C 1008.1 hPa WNW 6.4 km/h 12.9 km/h 79% 0.0 mm 278 W/m2
11:32 14.5 °C 10.3 °C 1008.1 hPa WSW 7.9 km/h 17.7 km/h 76% 0.0 mm 169 W/m2
11:37 14.2 °C 10 °C 1008.1 hPa NW 14.3 km/h 16.1 km/h 76% 0.0 mm 113 W/m2
11:42 14.3 °C 10.3 °C 1007.8 hPa West 11.1 km/h 17.7 km/h 77% 0.0 mm 881 W/m2
11:47 14.7 °C 10.1 °C 1007.8 hPa East 4.7 km/h 17.7 km/h 74% 0.0 mm 868 W/m2
11:52 15.1 °C 10.5 °C 1007.8 hPa West 17.7 km/h 17.7 km/h 74% 0.0 mm 867 W/m2
11:57 15.2 °C 10 °C 1007.8 hPa NNW 7.9 km/h 9.7 km/h 71% 0.0 mm 352 W/m2
12:02 15.2 °C 10.2 °C 1008.1 hPa NW 4.7 km/h 11.3 km/h 72% 0.0 mm 146 W/m2
12:07 15.1 °C 10.1 °C 1008.1 hPa WSW 11.1 km/h 19.3 km/h 72% 0.0 mm 74 W/m2
12:12 14.8 °C 10 °C 1008.5 hPa WNW 3.2 km/h 11.3 km/h 73% 0.0 mm 95 W/m2
12:17 14.3 °C 9.7 °C 1008.5 hPa WNW 1.4 km/h 16.1 km/h 74% 0.0 mm 255 W/m2
12:22 14.3 °C 9.9 °C 1008.5 hPa WSW 6.4 km/h 12.9 km/h 75% 0.0 mm 255 W/m2
12:27 14.4 °C 9.8 °C 1008.5 hPa WNW 3.2 km/h 24.1 km/h 74% 0.0 mm 227 W/m2
12:32 14.4 °C 10 °C 1008.5 hPa West 1.4 km/h 11.3 km/h 75% 0.0 mm 406 W/m2
12:37 14.6 °C 10.2 °C 1008.5 hPa WNW 7.9 km/h 24.1 km/h 75% 0.0 mm 761 W/m2
12:42 14.9 °C 9.7 °C 1008.5 hPa WNW 6.4 km/h 17.7 km/h 71% 0.0 mm 652 W/m2
12:47 15.3 °C 9.4 °C 1008.1 hPa NW 4.7 km/h 19.3 km/h 68% 0.0 mm 784 W/m2
12:52 15.6 °C 9.7 °C 1008.5 hPa WNW 16.3 km/h 16.1 km/h 68% 0.0 mm 847 W/m2
12:57 15.6 °C 9.7 °C 1008.5 hPa WSW 11.1 km/h 17.7 km/h 68% 0.0 mm 267 W/m2
13:02 15.5 °C 9.6 °C 1008.5 hPa West 6.4 km/h 11.3 km/h 68% 0.0 mm 255 W/m2
13:07 15.4 °C 9.7 °C 1008.5 hPa WNW 6.4 km/h 17.7 km/h 69% 0.0 mm 167 W/m2
13:12 15.3 °C 10.1 °C 1008.5 hPa WSW 3.2 km/h 6.4 km/h 71% 0.0 mm 404 W/m2
13:17 15.6 °C 10.4 °C 1008.5 hPa NW 6.4 km/h 9.7 km/h 71% 0.0 mm 861 W/m2
13:22 15.7 °C 10 °C 1008.5 hPa WNW 4.7 km/h 9.7 km/h 69% 0.0 mm 357 W/m2
13:27 15.6 °C 10.4 °C 1008.5 hPa West 4.7 km/h 12.9 km/h 71% 0.0 mm 320 W/m2
13:32 15.6 °C 10.1 °C 1008.5 hPa West 1.4 km/h 4.8 km/h 70% 0.0 mm 239 W/m2
13:37 15.6 °C 9.9 °C 1008.5 hPa WNW 6.4 km/h 9.7 km/h 69% 0.0 mm 406 W/m2
13:42 15.7 °C 10.5 °C 1008.5 hPa NW 6.4 km/h 16.1 km/h 71% 0.0 mm 339 W/m2
13:47 15.9 °C 10 °C 1008.5 hPa South 17.7 km/h 17.7 km/h 68% 0.0 mm 338 W/m2
13:52 15.8 °C 9.2 °C 1008.5 hPa SW 7.9 km/h 14.5 km/h 65% 0.0 mm 350 W/m2
13:57 15.9 °C 9.8 °C 1008.5 hPa WSW 3.2 km/h 9.7 km/h 67% 0.0 mm 622 W/m2
14:02 16.3 °C 9.9 °C 1008.5 hPa NW 4.7 km/h 14.5 km/h 66% 0.0 mm 1109 W/m2
14:07 16.5 °C 9.7 °C 1008.5 hPa West 6.4 km/h 17.7 km/h 64% 0.0 mm 399 W/m2
14:12 16.5 °C 9.9 °C 1008.5 hPa WNW 13 km/h 12.9 km/h 65% 0.0 mm 350 W/m2
14:17 16.6 °C 10.2 °C 1008.8 hPa WNW 16.3 km/h 20.9 km/h 66% 0.0 mm 1107 W/m2
14:22 16.8 °C 9.7 °C 1008.5 hPa West 9.7 km/h 14.5 km/h 63% 0.0 mm 1107 W/m2
14:27 16.8 °C 9.2 °C 1008.8 hPa West 6.4 km/h 19.3 km/h 61% 0.0 mm 287 W/m2
14:32 16.6 °C 9.3 °C 1008.8 hPa WNW 13 km/h 17.7 km/h 62% 0.0 mm 279 W/m2
14:37 16.3 °C 9.5 °C 1008.8 hPa NW 7.9 km/h 11.3 km/h 64% 0.0 mm 302 W/m2
14:42 16.2 °C 9.6 °C 1008.8 hPa West 9.7 km/h 12.9 km/h 65% 0.0 mm 374 W/m2
14:47 16.3 °C 9.9 °C 1008.8 hPa WNW 4.7 km/h 12.9 km/h 66% 0.0 mm 404 W/m2
14:52 16.3 °C 9.7 °C 1008.8 hPa WNW 7.9 km/h 16.1 km/h 65% 0.0 mm 471 W/m2
14:57 16.5 °C 9.9 °C 1008.8 hPa WSW 11.1 km/h 14.5 km/h 65% 0.0 mm 471 W/m2
15:02 16.6 °C 9.8 °C 1008.8 hPa NW 7.9 km/h 12.9 km/h 64% 0.0 mm 387 W/m2
15:07 16.6 °C 9.3 °C 1008.8 hPa East 4.7 km/h 12.9 km/h 62% 0.0 mm 338 W/m2
15:12 16.4 °C 9.3 °C 1008.8 hPa WNW 6.4 km/h 12.9 km/h 63% 0.0 mm 336 W/m2
15:17 16.3 °C 9.7 °C 1008.8 hPa West 9.7 km/h 11.3 km/h 65% 0.0 mm 436 W/m2
15:22 16.4 °C 9.3 °C 1008.8 hPa NW 1.4 km/h 8 km/h 63% 0.0 mm 872 W/m2
15:27 16.7 °C 9.9 °C 1008.8 hPa SE 3.2 km/h 12.9 km/h 64% 0.0 mm 809 W/m2
15:32 16.9 °C 9.6 °C 1008.8 hPa NW 3.2 km/h 19.3 km/h 62% 0.0 mm 807 W/m2
15:37 17 °C 9.2 °C 1008.8 hPa West 9.7 km/h 24.1 km/h 60% 0.0 mm 788 W/m2
15:42 17 °C 9.4 °C 1008.8 hPa WNW 13 km/h 22.5 km/h 61% 0.0 mm 728 W/m2
15:47 16.8 °C 9.5 °C 1008.8 hPa WNW 3.2 km/h 17.7 km/h 62% 0.0 mm 399 W/m2
15:52 16.8 °C 9.7 °C 1008.8 hPa West 6.4 km/h 16.1 km/h 63% 0.0 mm 397 W/m2
15:57 16.8 °C 9.5 °C 1008.8 hPa West 3.2 km/h 17.7 km/h 62% 0.0 mm 410 W/m2
16:02 16.8 °C 9.2 °C 1008.5 hPa WNW 3.2 km/h 11.3 km/h 61% 0.0 mm 411 W/m2
16:07 16.9 °C 9.1 °C 1008.8 hPa NW 7.9 km/h 12.9 km/h 60% 0.0 mm 445 W/m2
16:12 17 °C 9.4 °C 1008.8 hPa NW 3.2 km/h 16.1 km/h 61% 0.0 mm 476 W/m2
16:17 17 °C 8.7 °C 1008.8 hPa NW 4.7 km/h 12.9 km/h 58% 0.0 mm 512 W/m2
16:22 17.1 °C 9 °C 1008.8 hPa NE 3.2 km/h 6.4 km/h 59% 0.0 mm 881 W/m2
16:27 17.4 °C 9.6 °C 1008.8 hPa ESE 1.4 km/h 11.3 km/h 60% 0.0 mm 737 W/m2
16:32 17.5 °C 9.9 °C 1008.8 hPa East 3.2 km/h 6.4 km/h 61% 0.0 mm 355 W/m2
16:37 17.6 °C 10 °C 1008.8 hPa SSE 3.2 km/h 6.4 km/h 61% 0.0 mm 339 W/m2
16:42 17.6 °C 9.7 °C 1008.8 hPa NW 6.4 km/h 9.7 km/h 60% 0.0 mm 353 W/m2
16:47 17.6 °C 10 °C 1008.8 hPa SE 4.7 km/h 11.3 km/h 61% 0.0 mm 332 W/m2
16:52 17.3 °C 9.5 °C 1008.8 hPa SW 3.2 km/h 14.5 km/h 60% 0.0 mm 230 W/m2
16:57 17.3 °C 9.7 °C 1008.8 hPa West 4.7 km/h 9.7 km/h 61% 0.0 mm 251 W/m2
17:02 17.3 °C 9.9 °C 1008.8 hPa SW 3.2 km/h 9.7 km/h 62% 0.0 mm 257 W/m2
17:07 17.4 °C 9.8 °C 1008.8 hPa NW 7.9 km/h 12.9 km/h 61% 0.0 mm 642 W/m2
17:13 17.6 °C 10 °C 1008.8 hPa West 6.4 km/h 12.9 km/h 61% 0.0 mm 431 W/m2
17:18 17.5 °C 9.6 °C 1008.8 hPa SE 1.4 km/h 8 km/h 60% 0.0 mm 176 W/m2
17:23 17.4 °C 9.6 °C 1008.8 hPa NNW 4.7 km/h 11.3 km/h 60% 0.0 mm 232 W/m2
17:28 17.4 °C 10.3 °C 1008.8 hPa WSW 6.4 km/h 11.3 km/h 63% 0.0 mm 171 W/m2
17:33 17.2 °C 10.1 °C 1008.8 hPa West 6.4 km/h 14.5 km/h 63% 0.0 mm 155 W/m2
17:38 17.1 °C 10.2 °C 1009.1 hPa NW 4.7 km/h 9.7 km/h 64% 0.0 mm 165 W/m2
17:43 17 °C 10.4 °C 1009.1 hPa WSW 6.4 km/h 14.5 km/h 65% 0.0 mm 213 W/m2
17:48 17.1 °C 10.7 °C 1009.1 hPa West 9.7 km/h 14.5 km/h 66% 0.0 mm 299 W/m2
17:53 17 °C 10.1 °C 1009.1 hPa WNW 4.7 km/h 12.9 km/h 64% 0.0 mm 243 W/m2
17:58 16.9 °C 10.3 °C 1009.5 hPa WNW 6.4 km/h 12.9 km/h 65% 0.0 mm 348 W/m2
18:03 17 °C 10.4 °C 1009.5 hPa West 6.4 km/h 9.7 km/h 65% 0.0 mm 232 W/m2
18:08 16.9 °C 10 °C 1009.1 hPa WNW 1.4 km/h 6.4 km/h 64% 0.0 mm 176 W/m2
18:13 16.7 °C 10.1 °C 1009.5 hPa West 6.4 km/h 12.9 km/h 65% 0.0 mm 148 W/m2
18:18 16.4 °C 9.8 °C 1009.5 hPa WNW 6.4 km/h 11.3 km/h 65% 0.0 mm 123 W/m2
18:23 16.3 °C 9.9 °C 1009.5 hPa WNW 4.7 km/h 8 km/h 66% 0.0 mm 121 W/m2
18:28 16.2 °C 9.6 °C 1009.5 hPa WSW 3.2 km/h 8 km/h 65% 0.0 mm 100 W/m2
18:33 16.1 °C 9.7 °C 1009.5 hPa WSW 3.2 km/h 6.4 km/h 66% 0.0 mm 104 W/m2
18:38 16.1 °C 10 °C 1009.5 hPa West 1.4 km/h 3.2 km/h 67% 0.0 mm 142 W/m2
18:43 16.1 °C 10 °C 1009.5 hPa Calm   3.2 km/h 67% 0.0 mm 160 W/m2
18:48 16.2 °C 10.1 °C 1009.5 hPa WNW 1.4 km/h 3.2 km/h 67% 0.0 mm 139 W/m2
18:53 16.2 °C 10.1 °C 1009.5 hPa WNW 1.4 km/h 4.8 km/h 67% 0.0 mm 137 W/m2
18:58 16.2 °C 10.1 °C 1009.5 hPa WNW 1.4 km/h 1.6 km/h 67% 0.0 mm 155 W/m2
19:03 16.3 °C 10.8 °C 1009.5 hPa Calm   4.8 km/h 70% 0.0 mm 132 W/m2
19:08 16.3 °C 10.6 °C 1009.5 hPa Calm     69% 0.0 mm 84 W/m2
19:13 16.4 °C 10.3 °C 1009.8 hPa WNW 1.4 km/h 3.2 km/h 67% 0.0 mm 74 W/m2
19:18 16.4 °C 10.7 °C 1009.8 hPa NW 1.4 km/h 3.2 km/h 69% 0.0 mm 72 W/m2
19:23 16.3 °C 10.6 °C 1009.8 hPa Calm     69% 0.0 mm 70 W/m2
19:28 16.3 °C 11 °C 1009.8 hPa Calm     71% 0.0 mm 72 W/m2
19:33 16.3 °C 11.5 °C 1009.8 hPa Calm     73% 0.0 mm 88 W/m2
19:38 16.2 °C 11.8 °C 1009.8 hPa Calm   3.2 km/h 75% 0.0 mm 107 W/m2
19:43 16 °C 11.4 °C 1009.8 hPa WNW 1.4 km/h 1.6 km/h 74% 0.0 mm 90 W/m2
19:48 16 °C 11.4 °C 1009.8 hPa Calm   3.2 km/h 74% 0.0 mm 83 W/m2
19:53 16.1 °C 10.8 °C 1009.8 hPa WNW 3.2 km/h 3.2 km/h 71% 0.0 mm 67 W/m2
19:58 16.1 °C 10.8 °C 1009.8 hPa WNW 3.2 km/h 3.2 km/h 71% 0.0 mm 60 W/m2
20:03 16 °C 10.5 °C 1009.8 hPa WSW 3.2 km/h 3.2 km/h 70% 0.0 mm 62 W/m2
20:08 15.9 °C 10.4 °C 1010.2 hPa WNW 1.4 km/h 3.2 km/h 70% 0.0 mm 74 W/m2
20:13 15.9 °C 10.6 °C 1010.2 hPa Calm     71% 0.0 mm 84 W/m2
20:18 15.9 °C 10.4 °C 1010.2 hPa Calm   1.6 km/h 70% 0.0 mm 84 W/m2
20:23 16 °C 10.5 °C 1010.2 hPa West 1.4 km/h 3.2 km/h 70% 0.0 mm 65 W/m2
20:28 16 °C 10.5 °C 1010.2 hPa Calm   1.6 km/h 70% 0.0 mm 60 W/m2
20:33 15.9 °C 10.4 °C 1010.2 hPa SW 1.4 km/h 1.6 km/h 70% 0.0 mm 60 W/m2
20:38 15.7 °C 10.2 °C 1010.2 hPa NW 1.4 km/h 3.2 km/h 70% 0.0 mm 56 W/m2
20:43 15.6 °C 10.4 °C 1010.2 hPa Calm   1.6 km/h 71% 0.0 mm 51 W/m2
20:48 15.5 °C 10.5 °C 1010.2 hPa Calm   3.2 km/h 72% 0.0 mm 42 W/m2
20:53 15.4 °C 10.6 °C 1010.2 hPa Calm   3.2 km/h 73% 0.0 mm 32 W/m2
20:58 15.3 °C 10.5 °C 1010.2 hPa WNW 3.2 km/h 3.2 km/h 73% 0.0 mm 21 W/m2
21:03 15.1 °C 10.5 °C 1010.5 hPa Calm   3.2 km/h 74% 0.0 mm 14 W/m2
21:08 14.9 °C 10.5 °C 1010.5 hPa Calm   1.6 km/h 75% 0.0 mm 11 W/m2
21:13 14.7 °C 10.3 °C 1010.5 hPa Calm   3.2 km/h 75% 0.0 mm 11 W/m2
21:18 14.5 °C 10.5 °C 1010.5 hPa Calm   1.6 km/h 77% 0.0 mm 7 W/m2
21:23 14.4 °C 10.6 °C 1010.5 hPa Calm   3.2 km/h 78% 0.0 mm 0 W/m2
21:28 14.2 °C 10.4 °C 1010.8 hPa Calm     78% 0.0 mm 0 W/m2
21:33 14.1 °C 10.5 °C 1010.8 hPa Calm     79% 0.0 mm 0 W/m2
21:38 13.9 °C 10.3 °C 1010.8 hPa Calm     79% 0.0 mm 0 W/m2
21:43 13.7 °C 10.3 °C 1010.8 hPa Calm     80% 0.0 mm 0 W/m2
21:48 13.6 °C 10 °C 1010.8 hPa Calm   3.2 km/h 79% 0.0 mm 0 W/m2
21:53 13.6 °C 9.8 °C 1010.8 hPa Calm   3.2 km/h 78% 0.0 mm 0 W/m2
21:58 13.5 °C 10.1 °C 1010.8 hPa Calm   1.6 km/h 80% 0.0 mm 0 W/m2
22:03 13.4 °C 10 °C 1010.8 hPa WSW 3.2 km/h 4.8 km/h 80% 0.0 mm 0 W/m2
22:08 13.3 °C 9.7 °C 1011.2 hPa Calm   1.6 km/h 79% 0.0 mm 0 W/m2
22:13 13.3 °C 9.7 °C 1011.2 hPa WNW 3.2 km/h 4.8 km/h 79% 0.0 mm 0 W/m2
22:18 13.3 °C 9.7 °C 1011.2 hPa Calm   3.2 km/h 79% 0.0 mm 0 W/m2
22:23 13.3 °C 9.7 °C 1011.2 hPa Calm   1.6 km/h 79% 0.0 mm 0 W/m2
22:28 13.3 °C 9.7 °C 1011.5 hPa Calm   3.2 km/h 79% 0.0 mm 0 W/m2
22:33 13.3 °C 9.5 °C 1011.5 hPa West 1.4 km/h 1.6 km/h 78% 0.0 mm 0 W/m2
22:38 13.2 °C 9.6 °C 1011.5 hPa Calm   1.6 km/h 79% 0.0 mm 0 W/m2
22:43 13.1 °C 9.7 °C 1011.5 hPa Calm   1.6 km/h 80% 0.0 mm 0 W/m2
22:48 13 °C 9.4 °C 1011.5 hPa Calm   3.2 km/h 79% 0.0 mm 0 W/m2
22:53 12.9 °C 9.5 °C 1011.5 hPa Calm   1.6 km/h 80% 0.0 mm 0 W/m2
22:58 12.8 °C 9.6 °C 1011.5 hPa WSW 6.4 km/h 6.4 km/h 81% 0.0 mm 0 W/m2
23:03 12.8 °C 9.4 °C 1011.9 hPa West 3.2 km/h 4.8 km/h 80% 0.0 mm 0 W/m2
23:08 12.9 °C 9.3 °C 1011.9 hPa West 3.2 km/h 6.4 km/h 79% 0.0 mm 0 W/m2
23:13 13.1 °C 9.5 °C 1011.9 hPa West 6.4 km/h 9.7 km/h 79% 0.0 mm 0 W/m2
23:18 13.2 °C 9.4 °C 1011.9 hPa West 4.7 km/h 6.4 km/h 78% 0.0 mm 0 W/m2
23:23 13.3 °C 9.5 °C 1011.9 hPa West 6.4 km/h 9.7 km/h 78% 0.0 mm 0 W/m2
23:28 13.2 °C 9.4 °C 1011.9 hPa WNW 4.7 km/h 6.4 km/h 78% 0.0 mm 0 W/m2
23:33 13.2 °C 9.4 °C 1011.9 hPa WSW 4.7 km/h 9.7 km/h 78% 0.0 mm 0 W/m2
23:38 13.1 °C 9.5 °C 1012.2 hPa WNW 4.7 km/h 6.4 km/h 79% 0.0 mm 0 W/m2
23:43 13.1 °C 9.5 °C 1012.2 hPa West 3.2 km/h 6.4 km/h 79% 0.0 mm 0 W/m2
23:49 13 °C 9.6 °C 1012.2 hPa West 1.4 km/h 3.2 km/h 80% 0.0 mm 0 W/m2
23:54 12.9 °C 9.5 °C 1012.2 hPa West 1.4 km/h 3.2 km/h 80% 0.0 mm 0 W/m2
23:59 12.7 °C 9.5 °C 1012.2 hPa Calm   3.2 km/h 81% 0.0 mm 0 W/m2
Juneau County Weather
Compliments of Weather Underground - 4 mb